sensor_id;sensor_type;location;lat;lon;timestamp;temperature;humidity
52943;DHT22;38809;53.300;6.614;2023-03-11T00:02:14;1.20;99.90
52943;DHT22;38809;53.300;6.614;2023-03-11T00:04:40;1.20;99.90
52943;DHT22;38809;53.300;6.614;2023-03-11T00:07:07;2.00;99.90
52943;DHT22;38809;53.300;6.614;2023-03-11T00:09:33;2.50;99.90
52943;DHT22;38809;53.300;6.614;2023-03-11T00:12:00;1.30;99.90
52943;DHT22;38809;53.300;6.614;2023-03-11T00:14:26;1.30;99.90
52943;DHT22;38809;53.300;6.614;2023-03-11T00:16:51;1.60;99.90
52943;DHT22;38809;53.300;6.614;2023-03-11T00:19:17;1.10;99.90
52943;DHT22;38809;53.300;6.614;2023-03-11T00:21:43;2.20;99.90
52943;DHT22;38809;53.300;6.614;2023-03-11T00:24:09;1.20;99.90
52943;DHT22;38809;53.300;6.614;2023-03-11T00:26:34;1.20;99.90
52943;DHT22;38809;53.300;6.614;2023-03-11T00:29:00;1.40;99.90
52943;DHT22;38809;53.300;6.614;2023-03-11T00:31:26;1.10;99.90
52943;DHT22;38809;53.300;6.614;2023-03-11T00:33:53;1.20;99.90
52943;DHT22;38809;53.300;6.614;2023-03-11T00:36:23;1.10;99.90
52943;DHT22;38809;53.300;6.614;2023-03-11T00:38:53;1.10;99.90
52943;DHT22;38809;53.300;6.614;2023-03-11T00:41:19;1.10;99.90
52943;DHT22;38809;53.300;6.614;2023-03-11T00:43:45;2.20;99.90
52943;DHT22;38809;53.300;6.614;2023-03-11T00:46:10;1.00;99.90
52943;DHT22;38809;53.300;6.614;2023-03-11T00:48:36;3.10;99.90
52943;DHT22;38809;53.300;6.614;2023-03-11T00:51:02;1.80;99.90
52943;DHT22;38809;53.300;6.614;2023-03-11T00:53:28;1.00;99.90
52943;DHT22;38809;53.300;6.614;2023-03-11T00:55:54;1.00;99.90
52943;DHT22;38809;53.300;6.614;2023-03-11T00:58:19;1.20;99.90
52943;DHT22;38809;53.300;6.614;2023-03-11T01:00:47;2.50;99.90
52943;DHT22;38809;53.300;6.614;2023-03-11T01:03:13;1.00;99.90
52943;DHT22;38809;53.300;6.614;2023-03-11T01:05:38;1.80;99.90
52943;DHT22;38809;53.300;6.614;2023-03-11T01:08:04;1.10;99.90
52943;DHT22;38809;53.300;6.614;2023-03-11T01:10:34;1.80;99.90
52943;DHT22;38809;53.300;6.614;2023-03-11T01:13:00;1.10;99.90
52943;DHT22;38809;53.300;6.614;2023-03-11T01:15:32;1.50;99.90
52943;DHT22;38809;53.300;6.614;2023-03-11T01:17:59;1.10;99.90
52943;DHT22;38809;53.300;6.614;2023-03-11T01:20:25;1.10;99.90
52943;DHT22;38809;53.300;6.614;2023-03-11T01:22:51;1.10;99.90
52943;DHT22;38809;53.300;6.614;2023-03-11T01:25:19;1.10;99.90
52943;DHT22;38809;53.300;6.614;2023-03-11T01:27:45;2.90;99.90
52943;DHT22;38809;53.300;6.614;2023-03-11T01:30:17;2.50;99.90
52943;DHT22;38809;53.300;6.614;2023-03-11T01:32:43;1.10;99.90
52943;DHT22;38809;53.300;6.614;2023-03-11T01:35:14;1.10;99.90
52943;DHT22;38809;53.300;6.614;2023-03-11T01:37:40;0.90;99.90
52943;DHT22;38809;53.300;6.614;2023-03-11T01:40:08;0.90;99.90
52943;DHT22;38809;53.300;6.614;2023-03-11T01:42:36;0.90;99.90
52943;DHT22;38809;53.300;6.614;2023-03-11T01:47:57;0.70;99.90
52943;DHT22;38809;53.300;6.614;2023-03-11T01:50:24;1.20;99.90
52943;DHT22;38809;53.300;6.614;2023-03-11T01:52:52;0.70;99.90
52943;DHT22;38809;53.300;6.614;2023-03-11T01:55:18;0.70;99.90
52943;DHT22;38809;53.300;6.614;2023-03-11T01:57:45;0.80;99.90
52943;DHT22;38809;53.300;6.614;2023-03-11T02:00:13;0.80;99.90
52943;DHT22;38809;53.300;6.614;2023-03-11T02:05:11;0.80;99.90
52943;DHT22;38809;53.300;6.614;2023-03-11T02:07:39;2.40;99.90
52943;DHT22;38809;53.300;6.614;2023-03-11T02:10:05;1.40;99.90
52943;DHT22;38809;53.300;6.614;2023-03-11T02:12:33;0.80;99.90
52943;DHT22;38809;53.300;6.614;2023-03-11T02:14:59;0.80;99.90
52943;DHT22;38809;53.300;6.614;2023-03-11T02:17:26;0.80;99.90
52943;DHT22;38809;53.300;6.614;2023-03-11T02:22:40;0.90;99.90
52943;DHT22;38809;53.300;6.614;2023-03-11T02:25:17;2.10;99.90
52943;DHT22;38809;53.300;6.614;2023-03-11T02:27:48;0.90;99.90
52943;DHT22;38809;53.300;6.614;2023-03-11T02:30:15;1.20;99.90
52943;DHT22;38809;53.300;6.614;2023-03-11T02:32:43;1.70;99.90
52943;DHT22;38809;53.300;6.614;2023-03-11T02:35:11;0.90;99.90
52943;DHT22;38809;53.300;6.614;2023-03-11T02:37:43;0.90;99.90
52943;DHT22;38809;53.300;6.614;2023-03-11T02:42:50;2.40;99.90
52943;DHT22;38809;53.300;6.614;2023-03-11T02:45:19;2.80;99.90
52943;DHT22;38809;53.300;6.614;2023-03-11T02:47:45;1.90;99.90
52943;DHT22;38809;53.300;6.614;2023-03-11T02:50:14;1.40;99.90
52943;DHT22;38809;53.300;6.614;2023-03-11T02:52:40;0.60;99.90
52943;DHT22;38809;53.300;6.614;2023-03-11T02:55:07;0.60;99.90
52943;DHT22;38809;53.300;6.614;2023-03-11T02:57:34;0.60;99.90
52943;DHT22;38809;53.300;6.614;2023-03-11T03:00:00;0.70;99.90
52943;DHT22;38809;53.300;6.614;2023-03-11T03:02:33;1.80;99.90
52943;DHT22;38809;53.300;6.614;2023-03-11T03:04:58;0.50;99.90
52943;DHT22;38809;53.300;6.614;2023-03-11T03:07:24;1.70;99.90
52943;DHT22;38809;53.300;6.614;2023-03-11T03:09:50;2.90;99.90
52943;DHT22;38809;53.300;6.614;2023-03-11T03:12:15;1.90;99.90
52943;DHT22;38809;53.300;6.614;2023-03-11T03:14:41;1.00;99.90
52943;DHT22;38809;53.300;6.614;2023-03-11T03:17:06;0.50;99.90
52943;DHT22;38809;53.300;6.614;2023-03-11T03:19:32;1.70;99.90
52943;DHT22;38809;53.300;6.614;2023-03-11T03:21:58;0.30;99.90
52943;DHT22;38809;53.300;6.614;2023-03-11T03:24:37;0.40;99.90
52943;DHT22;38809;53.300;6.614;2023-03-11T03:27:03;2.60;99.90
52943;DHT22;38809;53.300;6.614;2023-03-11T03:29:29;0.40;99.90
52943;DHT22;38809;53.300;6.614;2023-03-11T03:31:55;2.00;99.90
52943;DHT22;38809;53.300;6.614;2023-03-11T03:34:21;0.40;99.90
52943;DHT22;38809;53.300;6.614;2023-03-11T03:36:46;1.80;99.90
52943;DHT22;38809;53.300;6.614;2023-03-11T03:39:12;1.90;99.90
52943;DHT22;38809;53.300;6.614;2023-03-11T03:41:37;1.20;99.90
52943;DHT22;38809;53.300;6.614;2023-03-11T03:44:03;1.60;99.90
52943;DHT22;38809;53.300;6.614;2023-03-11T03:46:29;0.30;99.90
52943;DHT22;38809;53.300;6.614;2023-03-11T03:48:55;0.00;99.90
52943;DHT22;38809;53.300;6.614;2023-03-11T03:51:21;1.50;99.90
52943;DHT22;38809;53.300;6.614;2023-03-11T03:53:47;0.20;99.90
52943;DHT22;38809;53.300;6.614;2023-03-11T03:56:15;0.30;99.90
52943;DHT22;38809;53.300;6.614;2023-03-11T03:58:41;0.30;99.90
52943;DHT22;38809;53.300;6.614;2023-03-11T04:01:07;0.20;99.90
52943;DHT22;38809;53.300;6.614;2023-03-11T04:03:34;1.50;99.90
52943;DHT22;38809;53.300;6.614;2023-03-11T04:06:08;1.40;99.90
52943;DHT22;38809;53.300;6.614;2023-03-11T04:08:33;0.20;99.90
52943;DHT22;38809;53.300;6.614;2023-03-11T04:10:59;0.30;99.90
52943;DHT22;38809;53.300;6.614;2023-03-11T04:13:25;0.90;99.90
52943;DHT22;38809;53.300;6.614;2023-03-11T04:15:51;0.20;99.90
52943;DHT22;38809;53.300;6.614;2023-03-11T04:18:16;0.10;99.90
52943;DHT22;38809;53.300;6.614;2023-03-11T04:20:42;0.20;99.90
52943;DHT22;38809;53.300;6.614;2023-03-11T04:23:08;0.10;99.90
52943;DHT22;38809;53.300;6.614;2023-03-11T04:25:33;0.10;99.90
52943;DHT22;38809;53.300;6.614;2023-03-11T04:27:59;0.80;99.90
52943;DHT22;38809;53.300;6.614;2023-03-11T04:30:25;0.80;99.90
52943;DHT22;38809;53.300;6.614;2023-03-11T04:32:51;0.10;99.90
52943;DHT22;38809;53.300;6.614;2023-03-11T04:35:16;0.70;99.90
52943;DHT22;38809;53.300;6.614;2023-03-11T04:37:42;0.10;99.90
52943;DHT22;38809;53.300;6.614;2023-03-11T04:40:08;0.60;99.90
52943;DHT22;38809;53.300;6.614;2023-03-11T04:42:35;0.00;99.90
52943;DHT22;38809;53.300;6.614;2023-03-11T04:45:01;1.30;99.90
52943;DHT22;38809;53.300;6.614;2023-03-11T04:47:27;1.70;99.90
52943;DHT22;38809;53.300;6.614;2023-03-11T04:49:53;0.30;99.90
52943;DHT22;38809;53.300;6.614;2023-03-11T04:52:20;1.00;99.90
52943;DHT22;38809;53.300;6.614;2023-03-11T04:54:46;-0.10;99.90
52943;DHT22;38809;53.300;6.614;2023-03-11T04:57:12;0.40;99.90
52943;DHT22;38809;53.300;6.614;2023-03-11T04:59:37;-0.30;99.90
52943;DHT22;38809;53.300;6.614;2023-03-11T05:02:03;-0.20;99.90
52943;DHT22;38809;53.300;6.614;2023-03-11T05:04:29;-0.30;99.90
52943;DHT22;38809;53.300;6.614;2023-03-11T05:06:55;-0.30;99.90
52943;DHT22;38809;53.300;6.614;2023-03-11T05:09:21;1.30;99.90
52943;DHT22;38809;53.300;6.614;2023-03-11T05:11:47;-0.40;99.90
52943;DHT22;38809;53.300;6.614;2023-03-11T05:14:12;-0.40;99.90
52943;DHT22;38809;53.300;6.614;2023-03-11T05:16:38;-0.50;99.90
52943;DHT22;38809;53.300;6.614;2023-03-11T05:19:04;-0.40;99.90
52943;DHT22;38809;53.300;6.614;2023-03-11T05:21:49;1.10;99.90
52943;DHT22;38809;53.300;6.614;2023-03-11T05:24:15;0.90;99.90
52943;DHT22;38809;53.300;6.614;2023-03-11T05:26:41;-0.40;99.90
52943;DHT22;38809;53.300;6.614;2023-03-11T05:29:06;-0.40;99.90
52943;DHT22;38809;53.300;6.614;2023-03-11T05:31:32;1.10;99.90
52943;DHT22;38809;53.300;6.614;2023-03-11T05:33:57;-0.50;99.90
52943;DHT22;38809;53.300;6.614;2023-03-11T05:36:23;-0.50;99.90
52943;DHT22;38809;53.300;6.614;2023-03-11T05:38:49;-0.50;99.90
52943;DHT22;38809;53.300;6.614;2023-03-11T05:41:14;-0.40;99.90
52943;DHT22;38809;53.300;6.614;2023-03-11T05:43:40;-0.40;99.90
52943;DHT22;38809;53.300;6.614;2023-03-11T05:46:06;0.20;99.90
52943;DHT22;38809;53.300;6.614;2023-03-11T05:48:31;-0.60;99.90
52943;DHT22;38809;53.300;6.614;2023-03-11T05:50:58;-0.60;99.90
52943;DHT22;38809;53.300;6.614;2023-03-11T05:53:23;-0.60;99.90
52943;DHT22;38809;53.300;6.614;2023-03-11T05:55:59;-0.60;99.90
52943;DHT22;38809;53.300;6.614;2023-03-11T05:58:29;-0.80;99.90
52943;DHT22;38809;53.300;6.614;2023-03-11T06:00:55;-0.80;99.90
52943;DHT22;38809;53.300;6.614;2023-03-11T06:03:21;-0.70;99.90
52943;DHT22;38809;53.300;6.614;2023-03-11T06:05:48;-1.80;99.90
52943;DHT22;38809;53.300;6.614;2023-03-11T06:08:14;-0.70;99.90
52943;DHT22;38809;53.300;6.614;2023-03-11T06:10:40;-0.60;99.90
52943;DHT22;38809;53.300;6.614;2023-03-11T06:13:07;-0.10;99.90
52943;DHT22;38809;53.300;6.614;2023-03-11T06:15:34;-0.50;99.90
52943;DHT22;38809;53.300;6.614;2023-03-11T06:18:00;-0.60;99.90
52943;DHT22;38809;53.300;6.614;2023-03-11T06:20:26;-0.60;99.90
52943;DHT22;38809;53.300;6.614;2023-03-11T06:22:52;-0.60;99.90
52943;DHT22;38809;53.300;6.614;2023-03-11T06:25:18;0.50;99.90
52943;DHT22;38809;53.300;6.614;2023-03-11T06:27:48;1.10;99.90
52943;DHT22;38809;53.300;6.614;2023-03-11T06:30:15;1.00;99.90
52943;DHT22;38809;53.300;6.614;2023-03-11T06:32:43;-0.30;99.90
52943;DHT22;38809;53.300;6.614;2023-03-11T06:35:09;1.30;99.90
52943;DHT22;38809;53.300;6.614;2023-03-11T06:37:36;-0.20;99.90
52943;DHT22;38809;53.300;6.614;2023-03-11T06:40:03;1.70;99.90
52943;DHT22;38809;53.300;6.614;2023-03-11T06:42:29;-0.20;99.90
52943;DHT22;38809;53.300;6.614;2023-03-11T06:44:55;-0.20;99.90
52943;DHT22;38809;53.300;6.614;2023-03-11T06:47:21;-0.10;99.90
52943;DHT22;38809;53.300;6.614;2023-03-11T06:49:46;1.80;99.90
52943;DHT22;38809;53.300;6.614;2023-03-11T06:52:14;-0.10;99.90
52943;DHT22;38809;53.300;6.614;2023-03-11T06:54:40;1.10;99.90
52943;DHT22;38809;53.300;6.614;2023-03-11T06:57:09;0.10;99.90
52943;DHT22;38809;53.300;6.614;2023-03-11T06:59:35;0.10;99.90
52943;DHT22;38809;53.300;6.614;2023-03-11T07:02:02;0.10;99.90
52943;DHT22;38809;53.300;6.614;2023-03-11T07:04:29;0.10;99.90
52943;DHT22;38809;53.300;6.614;2023-03-11T07:06:55;2.20;99.90
52943;DHT22;38809;53.300;6.614;2023-03-11T07:09:21;1.90;99.90
52943;DHT22;38809;53.300;6.614;2023-03-11T07:11:47;1.70;99.90
52943;DHT22;38809;53.300;6.614;2023-03-11T07:14:13;0.30;99.90
52943;DHT22;38809;53.300;6.614;2023-03-11T07:16:39;2.50;99.90
52943;DHT22;38809;53.300;6.614;2023-03-11T07:19:05;2.50;99.90
52943;DHT22;38809;53.300;6.614;2023-03-11T07:21:31;0.30;99.90
52943;DHT22;38809;53.300;6.614;2023-03-11T07:23:59;0.50;99.90
52943;DHT22;38809;53.300;6.614;2023-03-11T07:26:26;0.40;99.90
52943;DHT22;38809;53.300;6.614;2023-03-11T07:28:55;0.50;99.90
52943;DHT22;38809;53.300;6.614;2023-03-11T07:31:24;0.70;99.90
52943;DHT22;38809;53.300;6.614;2023-03-11T07:33:50;0.80;99.90
52943;DHT22;38809;53.300;6.614;2023-03-11T07:36:19;0.60;99.90
52943;DHT22;38809;53.300;6.614;2023-03-11T07:38:45;1.10;99.90
52943;DHT22;38809;53.300;6.614;2023-03-11T07:41:13;0.70;99.90
52943;DHT22;38809;53.300;6.614;2023-03-11T07:43:42;0.70;99.90
52943;DHT22;38809;53.300;6.614;2023-03-11T07:46:10;0.60;99.90
52943;DHT22;38809;53.300;6.614;2023-03-11T07:48:37;2.70;99.90
52943;DHT22;38809;53.300;6.614;2023-03-11T07:51:06;1.00;99.90
52943;DHT22;38809;53.300;6.614;2023-03-11T07:53:33;0.70;99.90
52943;DHT22;38809;53.300;6.614;2023-03-11T07:55:59;2.10;99.90
52943;DHT22;38809;53.300;6.614;2023-03-11T07:58:25;0.80;99.90
52943;DHT22;38809;53.300;6.614;2023-03-11T08:00:51;0.70;99.90
52943;DHT22;38809;53.300;6.614;2023-03-11T08:03:17;2.70;99.90
52943;DHT22;38809;53.300;6.614;2023-03-11T08:05:43;0.90;99.90
52943;DHT22;38809;53.300;6.614;2023-03-11T08:08:09;0.90;99.90
52943;DHT22;38809;53.300;6.614;2023-03-11T08:10:38;2.00;99.90
52943;DHT22;38809;53.300;6.614;2023-03-11T08:13:04;1.00;99.90
52943;DHT22;38809;53.300;6.614;2023-03-11T08:15:30;1.20;99.90
52943;DHT22;38809;53.300;6.614;2023-03-11T08:17:55;1.20;99.90
52943;DHT22;38809;53.300;6.614;2023-03-11T08:20:21;1.30;99.90
52943;DHT22;38809;53.300;6.614;2023-03-11T08:22:47;1.40;99.90
52943;DHT22;38809;53.300;6.614;2023-03-11T08:25:12;1.50;99.90
52943;DHT22;38809;53.300;6.614;2023-03-11T08:27:38;1.70;99.90
52943;DHT22;38809;53.300;6.614;2023-03-11T08:30:05;1.70;99.90
52943;DHT22;38809;53.300;6.614;2023-03-11T08:32:31;1.80;99.90
52943;DHT22;38809;53.300;6.614;2023-03-11T08:34:58;2.40;99.90
52943;DHT22;38809;53.300;6.614;2023-03-11T08:37:24;3.90;99.90
52943;DHT22;38809;53.300;6.614;2023-03-11T08:39:49;1.70;99.90
52943;DHT22;38809;53.300;6.614;2023-03-11T08:42:16;1.90;99.90
52943;DHT22;38809;53.300;6.614;2023-03-11T08:44:41;2.00;99.90
52943;DHT22;38809;53.300;6.614;2023-03-11T08:47:07;2.00;99.90
52943;DHT22;38809;53.300;6.614;2023-03-11T08:49:33;1.90;99.90
52943;DHT22;38809;53.300;6.614;2023-03-11T08:52:01;2.10;99.90
52943;DHT22;38809;53.300;6.614;2023-03-11T08:54:27;2.10;99.90
52943;DHT22;38809;53.300;6.614;2023-03-11T08:56:53;2.90;99.90
52943;DHT22;38809;53.300;6.614;2023-03-11T08:59:19;2.30;99.90
52943;DHT22;38809;53.300;6.614;2023-03-11T09:01:45;2.30;99.90
52943;DHT22;38809;53.300;6.614;2023-03-11T09:04:11;2.50;99.90
52943;DHT22;38809;53.300;6.614;2023-03-11T09:06:43;4.00;99.90
52943;DHT22;38809;53.300;6.614;2023-03-11T09:09:12;2.40;99.90
52943;DHT22;38809;53.300;6.614;2023-03-11T09:11:38;2.60;99.90
52943;DHT22;38809;53.300;6.614;2023-03-11T09:14:04;2.80;99.90
52943;DHT22;38809;53.300;6.614;2023-03-11T09:16:30;2.80;99.90
52943;DHT22;38809;53.300;6.614;2023-03-11T09:18:56;2.70;99.90
52943;DHT22;38809;53.300;6.614;2023-03-11T09:21:24;2.70;99.90
52943;DHT22;38809;53.300;6.614;2023-03-11T09:23:50;2.80;99.90
52943;DHT22;38809;53.300;6.614;2023-03-11T09:26:16;3.20;99.90
52943;DHT22;38809;53.300;6.614;2023-03-11T09:31:11;3.40;99.90
52943;DHT22;38809;53.300;6.614;2023-03-11T09:33:38;3.50;99.90
52943;DHT22;38809;53.300;6.614;2023-03-11T09:36:05;3.50;99.90
52943;DHT22;38809;53.300;6.614;2023-03-11T09:38:31;3.80;99.90
52943;DHT22;38809;53.300;6.614;2023-03-11T09:43:59;3.90;99.90
52943;DHT22;38809;53.300;6.614;2023-03-11T09:46:50;3.90;99.90
52943;DHT22;38809;53.300;6.614;2023-03-11T09:54:42;4.20;99.90
52943;DHT22;38809;53.300;6.614;2023-03-11T09:57:17;4.30;99.90
52943;DHT22;38809;53.300;6.614;2023-03-11T09:59:44;4.60;99.90
52943;DHT22;38809;53.300;6.614;2023-03-11T10:02:22;4.70;99.90
52943;DHT22;38809;53.300;6.614;2023-03-11T10:07:40;4.70;99.90
52943;DHT22;38809;53.300;6.614;2023-03-11T10:10:12;5.00;99.90
52943;DHT22;38809;53.300;6.614;2023-03-11T10:15:18;5.00;99.90
52943;DHT22;38809;53.300;6.614;2023-03-11T10:26:14;5.10;99.90
52943;DHT22;38809;53.300;6.614;2023-03-11T10:28:49;5.50;99.90
52943;DHT22;38809;53.300;6.614;2023-03-11T10:31:29;5.50;99.90
52943;DHT22;38809;53.300;6.614;2023-03-11T10:36:27;5.60;99.90
52943;DHT22;38809;53.300;6.614;2023-03-11T10:39:47;7.40;99.90
52943;DHT22;38809;53.300;6.614;2023-03-11T10:42:21;5.80;99.90
52943;DHT22;38809;53.300;6.614;2023-03-11T10:44:47;5.70;99.90
52943;DHT22;38809;53.300;6.614;2023-03-11T10:47:21;6.40;99.90
52943;DHT22;38809;53.300;6.614;2023-03-11T10:49:48;5.60;99.90
52943;DHT22;38809;53.300;6.614;2023-03-11T10:52:14;5.70;99.90
52943;DHT22;38809;53.300;6.614;2023-03-11T10:54:45;5.70;99.90
52943;DHT22;38809;53.300;6.614;2023-03-11T10:57:24;6.30;99.90
52943;DHT22;38809;53.300;6.614;2023-03-11T10:59:52;5.60;99.90
52943;DHT22;38809;53.300;6.614;2023-03-11T11:02:28;5.70;99.90
52943;DHT22;38809;53.300;6.614;2023-03-11T11:07:40;5.90;99.90
52943;DHT22;38809;53.300;6.614;2023-03-11T11:10:21;6.30;99.90
52943;DHT22;38809;53.300;6.614;2023-03-11T11:17:48;6.40;99.90
52943;DHT22;38809;53.300;6.614;2023-03-11T11:20:18;6.50;99.90
52943;DHT22;38809;53.300;6.614;2023-03-11T11:22:52;6.40;99.90
52943;DHT22;38809;53.300;6.614;2023-03-11T11:25:39;6.70;99.90
52943;DHT22;38809;53.300;6.614;2023-03-11T11:28:16;6.40;99.90
52943;DHT22;38809;53.300;6.614;2023-03-11T11:33:25;6.40;99.90
52943;DHT22;38809;53.300;6.614;2023-03-11T11:35:54;6.60;99.90
52943;DHT22;38809;53.300;6.614;2023-03-11T11:38:22;6.70;99.90
52943;DHT22;38809;53.300;6.614;2023-03-11T11:40:52;6.50;99.90
52943;DHT22;38809;53.300;6.614;2023-03-11T11:43:27;6.80;99.90
52943;DHT22;38809;53.300;6.614;2023-03-11T11:46:01;7.00;99.90
52943;DHT22;38809;53.300;6.614;2023-03-11T11:51:16;6.90;99.90
52943;DHT22;38809;53.300;6.614;2023-03-11T11:53:49;7.00;99.90
52943;DHT22;38809;53.300;6.614;2023-03-11T11:56:17;6.90;99.90
52943;DHT22;38809;53.300;6.614;2023-03-11T11:58:42;6.90;99.90
52943;DHT22;38809;53.300;6.614;2023-03-11T12:01:18;7.20;99.90
52943;DHT22;38809;53.300;6.614;2023-03-11T12:04:25;6.80;99.90
52943;DHT22;38809;53.300;6.614;2023-03-11T12:12:29;8.00;99.90
52943;DHT22;38809;53.300;6.614;2023-03-11T12:17:49;6.80;99.90
52943;DHT22;38809;53.300;6.614;2023-03-11T12:20:47;6.80;99.90
52943;DHT22;38809;53.300;6.614;2023-03-11T12:26:21;6.90;99.90
52943;DHT22;38809;53.300;6.614;2023-03-11T12:28:52;6.90;99.90
52943;DHT22;38809;53.300;6.614;2023-03-11T12:31:20;7.00;99.90
52943;DHT22;38809;53.300;6.614;2023-03-11T12:34:01;7.00;99.90
52943;DHT22;38809;53.300;6.614;2023-03-11T12:36:31;7.00;99.90
52943;DHT22;38809;53.300;6.614;2023-03-11T12:39:01;7.00;99.90
52943;DHT22;38809;53.300;6.614;2023-03-11T12:41:34;6.80;99.90
52943;DHT22;38809;53.300;6.614;2023-03-11T12:44:19;6.90;99.90
52943;DHT22;38809;53.300;6.614;2023-03-11T12:46:58;7.10;99.90
52943;DHT22;38809;53.300;6.614;2023-03-11T12:54:37;7.50;99.90
52943;DHT22;38809;53.300;6.614;2023-03-11T13:05:59;7.40;99.90
52943;DHT22;38809;53.300;6.614;2023-03-11T13:10:59;7.30;99.90
52943;DHT22;38809;53.300;6.614;2023-03-11T13:15:57;5.90;99.90
52943;DHT22;38809;53.300;6.614;2023-03-11T13:18:45;7.30;99.90
52943;DHT22;38809;53.300;6.614;2023-03-11T13:23:56;7.00;99.90
52943;DHT22;38809;53.300;6.614;2023-03-11T13:27:02;7.20;99.90
52943;DHT22;38809;53.300;6.614;2023-03-11T13:35:27;6.80;99.90
52943;DHT22;38809;53.300;6.614;2023-03-11T13:41:15;7.10;99.90
52943;DHT22;38809;53.300;6.614;2023-03-11T13:43:48;7.30;99.90
52943;DHT22;38809;53.300;6.614;2023-03-11T13:46:30;7.20;99.90
52943;DHT22;38809;53.300;6.614;2023-03-11T13:49:40;7.20;99.90
52943;DHT22;38809;53.300;6.614;2023-03-11T13:51:59;7.10;99.90
52943;DHT22;38809;53.300;6.614;2023-03-11T13:54:48;7.20;99.90
52943;DHT22;38809;53.300;6.614;2023-03-11T13:57:30;7.40;99.90
52943;DHT22;38809;53.300;6.614;2023-03-11T14:00:03;7.10;99.90
52943;DHT22;38809;53.300;6.614;2023-03-11T14:02:29;7.20;99.90
52943;DHT22;38809;53.300;6.614;2023-03-11T14:05:04;6.80;99.90
52943;DHT22;38809;53.300;6.614;2023-03-11T14:07:33;6.60;99.90
52943;DHT22;38809;53.300;6.614;2023-03-11T14:12:43;6.60;99.90
52943;DHT22;38809;53.300;6.614;2023-03-11T14:15:19;6.80;99.90
52943;DHT22;38809;53.300;6.614;2023-03-11T14:17:46;6.70;99.90
52943;DHT22;38809;53.300;6.614;2023-03-11T14:20:20;6.60;99.90
52943;DHT22;38809;53.300;6.614;2023-03-11T14:22:50;6.50;99.90
52943;DHT22;38809;53.300;6.614;2023-03-11T14:25:27;6.80;99.90
52943;DHT22;38809;53.300;6.614;2023-03-11T14:27:59;6.90;99.90
52943;DHT22;38809;53.300;6.614;2023-03-11T14:30:31;7.00;99.90
52943;DHT22;38809;53.300;6.614;2023-03-11T14:35:25;7.00;99.90
52943;DHT22;38809;53.300;6.614;2023-03-11T14:37:51;6.80;99.90
52943;DHT22;38809;53.300;6.614;2023-03-11T14:40:33;6.80;99.90
52943;DHT22;38809;53.300;6.614;2023-03-11T14:43:06;6.60;99.90
52943;DHT22;38809;53.300;6.614;2023-03-11T14:45:34;6.60;99.90
52943;DHT22;38809;53.300;6.614;2023-03-11T14:48:19;6.50;99.90
52943;DHT22;38809;53.300;6.614;2023-03-11T14:50:48;6.30;99.90
52943;DHT22;38809;53.300;6.614;2023-03-11T14:53:16;6.40;99.90
52943;DHT22;38809;53.300;6.614;2023-03-11T14:55:50;6.20;99.90
52943;DHT22;38809;53.300;6.614;2023-03-11T14:58:42;6.20;99.90
52943;DHT22;38809;53.300;6.614;2023-03-11T15:01:19;6.10;99.90
52943;DHT22;38809;53.300;6.614;2023-03-11T15:03:57;6.10;99.90
52943;DHT22;38809;53.300;6.614;2023-03-11T15:06:26;6.50;99.90
52943;DHT22;38809;53.300;6.614;2023-03-11T15:09:02;5.90;99.90
52943;DHT22;38809;53.300;6.614;2023-03-11T15:11:30;5.80;99.90
52943;DHT22;38809;53.300;6.614;2023-03-11T15:14:23;5.70;99.90
52943;DHT22;38809;53.300;6.614;2023-03-11T15:16:50;5.70;99.90
52943;DHT22;38809;53.300;6.614;2023-03-11T15:19:30;5.60;99.90
52943;DHT22;38809;53.300;6.614;2023-03-11T15:24:56;5.20;99.90
52943;DHT22;38809;53.300;6.614;2023-03-11T15:27:33;5.60;99.90
52943;DHT22;38809;53.300;6.614;2023-03-11T15:30:01;5.10;99.90
52943;DHT22;38809;53.300;6.614;2023-03-11T15:37:33;4.80;99.90
52943;DHT22;38809;53.300;6.614;2023-03-11T15:40:22;4.90;99.90
52943;DHT22;38809;53.300;6.614;2023-03-11T15:45:40;5.10;99.90
52943;DHT22;38809;53.300;6.614;2023-03-11T15:48:07;5.30;99.90
52943;DHT22;38809;53.300;6.614;2023-03-11T15:50:33;5.20;99.90
52943;DHT22;38809;53.300;6.614;2023-03-11T15:52:59;5.30;99.90
52943;DHT22;38809;53.300;6.614;2023-03-11T15:55:25;5.30;99.90
52943;DHT22;38809;53.300;6.614;2023-03-11T15:58:04;5.40;99.90
52943;DHT22;38809;53.300;6.614;2023-03-11T16:00:31;5.40;99.90
52943;DHT22;38809;53.300;6.614;2023-03-11T16:02:57;5.40;99.90
52943;DHT22;38809;53.300;6.614;2023-03-11T16:05:24;5.40;99.90
52943;DHT22;38809;53.300;6.614;2023-03-11T16:07:50;5.30;99.90
52943;DHT22;38809;53.300;6.614;2023-03-11T16:10:19;5.20;99.90
52943;DHT22;38809;53.300;6.614;2023-03-11T16:12:45;5.20;99.90
52943;DHT22;38809;53.300;6.614;2023-03-11T16:15:21;5.20;99.90
52943;DHT22;38809;53.300;6.614;2023-03-11T16:17:50;5.10;99.90
52943;DHT22;38809;53.300;6.614;2023-03-11T16:20:17;5.00;99.90
52943;DHT22;38809;53.300;6.614;2023-03-11T16:22:43;4.90;99.90
52943;DHT22;38809;53.300;6.614;2023-03-11T16:25:25;4.80;99.90
52943;DHT22;38809;53.300;6.614;2023-03-11T16:27:53;4.70;99.90
52943;DHT22;38809;53.300;6.614;2023-03-11T16:30:19;4.60;99.90
52943;DHT22;38809;53.300;6.614;2023-03-11T16:32:46;4.60;99.90
52943;DHT22;38809;53.300;6.614;2023-03-11T16:35:11;4.50;99.90
52943;DHT22;38809;53.300;6.614;2023-03-11T16:37:38;4.40;99.90
52943;DHT22;38809;53.300;6.614;2023-03-11T16:40:05;4.30;99.90
52943;DHT22;38809;53.300;6.614;2023-03-11T16:42:32;4.20;99.90
52943;DHT22;38809;53.300;6.614;2023-03-11T16:44:58;4.10;99.90
52943;DHT22;38809;53.300;6.614;2023-03-11T16:47:23;4.20;99.90
52943;DHT22;38809;53.300;6.614;2023-03-11T16:49:49;4.00;99.90
52943;DHT22;38809;53.300;6.614;2023-03-11T16:52:19;4.00;99.90
52943;DHT22;38809;53.300;6.614;2023-03-11T16:54:46;4.40;99.90
52943;DHT22;38809;53.300;6.614;2023-03-11T16:57:12;4.00;99.90
52943;DHT22;38809;53.300;6.614;2023-03-11T16:59:38;4.20;99.90
52943;DHT22;38809;53.300;6.614;2023-03-11T17:02:04;3.80;99.90
52943;DHT22;38809;53.300;6.614;2023-03-11T17:04:29;3.90;99.90
52943;DHT22;38809;53.300;6.614;2023-03-11T17:06:55;3.90;99.90
52943;DHT22;38809;53.300;6.614;2023-03-11T17:09:21;3.80;99.90
52943;DHT22;38809;53.300;6.614;2023-03-11T17:11:49;3.80;99.90
52943;DHT22;38809;53.300;6.614;2023-03-11T17:14:18;3.90;99.90
52943;DHT22;38809;53.300;6.614;2023-03-11T17:16:44;3.80;99.90
52943;DHT22;38809;53.300;6.614;2023-03-11T17:19:10;3.60;99.90
52943;DHT22;38809;53.300;6.614;2023-03-11T17:21:35;3.60;99.90
52943;DHT22;38809;53.300;6.614;2023-03-11T17:24:01;3.60;99.90
52943;DHT22;38809;53.300;6.614;2023-03-11T17:26:27;3.60;99.90
52943;DHT22;38809;53.300;6.614;2023-03-11T17:28:55;3.80;99.90
52943;DHT22;38809;53.300;6.614;2023-03-11T17:31:21;4.10;99.90
52943;DHT22;38809;53.300;6.614;2023-03-11T17:33:47;3.30;99.90
52943;DHT22;38809;53.300;6.614;2023-03-11T17:36:15;3.40;99.90
52943;DHT22;38809;53.300;6.614;2023-03-11T17:38:42;3.30;99.90
52943;DHT22;38809;53.300;6.614;2023-03-11T17:41:09;3.30;99.90
52943;DHT22;38809;53.300;6.614;2023-03-11T17:43:37;3.30;99.90
52943;DHT22;38809;53.300;6.614;2023-03-11T17:46:11;3.30;99.90